Time;durP1;ratioP1;P1;durP2;ratioP2;P2;SDS_P1;SDS_P2;PMS_P1;PMS_P2;Temp;Humidity;BMP_temperature;BMP_pressure;BME280_temperature;BME280_humidity;BME280_pressure;Samples;Min_cycle;Max_cycle;Signal;HPM_P1;HPM_P2
2022/02/15 00:02:13;;;;;;;8.68;2.30;;;6.20;82.50;;;;;;5068116;28;20032;-82
2022/02/15 00:04:38;;;;;;;8.52;2.47;;;6.20;82.40;;;;;;5069543;28;20373;-82
2022/02/15 00:07:04;;;;;;;9.48;2.72;;;6.10;82.80;;;;;;5071820;28;20060;-82
2022/02/15 00:09:29;;;;;;;8.43;2.17;;;6.10;82.70;;;;;;5069315;28;20408;-82
2022/02/15 00:11:55;;;;;;;4.72;1.90;;;6.10;83.00;;;;;;5066387;28;20047;-82
2022/02/15 00:14:21;;;;;;;4.88;2.00;;;6.00;83.00;;;;;;5068461;28;20029;-83
2022/02/15 00:16:46;;;;;;;7.45;2.15;;;6.10;83.00;;;;;;5070148;28;20438;-82
2022/02/15 00:19:12;;;;;;;12.68;2.25;;;6.30;82.30;;;;;;5067524;28;20056;-82
2022/02/15 00:21:38;;;;;;;6.38;2.13;;;6.30;82.30;;;;;;5065958;28;20032;-82
2022/02/15 00:24:03;;;;;;;10.82;2.60;;;6.30;82.10;;;;;;5069104;28;20063;-82
2022/02/15 00:26:29;;;;;;;8.77;2.30;;;6.40;82.10;;;;;;5065665;28;20071;-82
2022/02/15 00:28:56;;;;;;;6.03;2.28;;;6.40;82.20;;;;;;5048457;28;20052;-82
2022/02/15 00:31:22;;;;;;;6.00;2.00;;;6.40;82.30;;;;;;5066575;28;20104;-82
2022/02/15 00:33:48;;;;;;;8.75;2.20;;;6.40;82.00;;;;;;5066414;28;20116;-82
2022/02/15 00:36:15;;;;;;;8.60;2.50;;;6.50;81.70;;;;;;5067680;28;20029;-82
2022/02/15 00:38:41;;;;;;;12.10;2.60;;;6.50;81.70;;;;;;5066519;28;20234;-82
2022/02/15 00:41:07;;;;;;;6.82;2.65;;;6.70;81.10;;;;;;5071462;28;20047;-83
2022/02/15 00:43:34;;;;;;;7.00;2.28;;;6.70;80.80;;;;;;5067257;28;20028;-82
2022/02/15 00:45:59;;;;;;;11.10;2.53;;;6.70;81.30;;;;;;5069663;28;20082;-82
2022/02/15 00:48:25;;;;;;;7.30;2.53;;;6.80;81.00;;;;;;5067466;28;20037;-82
2022/02/15 00:50:50;;;;;;;12.38;2.80;;;6.80;80.90;;;;;;5067438;28;20107;-82
2022/02/15 00:53:16;;;;;;;11.50;2.80;;;6.90;80.70;;;;;;5062462;28;20040;-83
2022/02/15 00:55:42;;;;;;;8.48;2.83;;;7.00;80.20;;;;;;5082431;28;20050;-83
2022/02/15 00:58:07;;;;;;;6.18;2.90;;;7.00;80.60;;;;;;5069235;28;20039;-83
2022/02/15 01:00:33;;;;;;;9.68;3.08;;;7.00;80.40;;;;;;5068123;28;20050;-83
2022/02/15 01:02:59;;;;;;;10.07;2.97;;;7.00;80.30;;;;;;5069643;28;20042;-82
2022/02/15 01:05:24;;;;;;;7.60;3.20;;;7.00;80.30;;;;;;5066813;28;20051;-82
2022/02/15 01:07:50;;;;;;;11.05;3.10;;;7.10;80.20;;;;;;5071504;28;20027;-82
2022/02/15 01:10:16;;;;;;;8.65;3.53;;;7.10;80.00;;;;;;5072397;28;20052;-82
2022/02/15 01:12:42;;;;;;;6.18;2.72;;;7.20;79.80;;;;;;5070578;28;20569;-82
2022/02/15 01:15:10;;;;;;;8.30;3.13;;;7.10;80.10;;;;;;5072845;28;20052;-82
2022/02/15 01:17:38;;;;;;;7.22;2.97;;;7.10;79.80;;;;;;5067232;28;20063;-82
2022/02/15 01:20:04;;;;;;;8.43;3.47;;;7.10;79.80;;;;;;5076674;28;20028;-82
2022/02/15 01:22:32;;;;;;;9.98;3.55;;;7.10;79.90;;;;;;5069506;28;20044;-82
2022/02/15 01:24:57;;;;;;;7.82;3.40;;;7.20;79.60;;;;;;5071405;28;20033;-83
2022/02/15 01:27:25;;;;;;;6.97;3.60;;;7.10;79.90;;;;;;5068246;28;20043;-83
2022/02/15 01:29:51;;;;;;;6.68;3.20;;;7.20;79.90;;;;;;5088311;28;20036;-82
2022/02/15 01:32:16;;;;;;;6.25;3.17;;;7.20;80.10;;;;;;5069371;28;20564;-82
2022/02/15 01:34:42;;;;;;;6.95;2.92;;;7.20;79.70;;;;;;5070423;28;20028;-82
2022/02/15 01:37:07;;;;;;;5.40;3.00;;;7.20;80.00;;;;;;5067104;28;20504;-82
2022/02/15 01:39:33;;;;;;;7.50;3.05;;;7.20;80.00;;;;;;5068159;28;20032;-82
2022/02/15 01:42:00;;;;;;;8.32;3.70;;;7.20;80.30;;;;;;5071574;28;20622;-82
2022/02/15 01:44:26;;;;;;;7.95;3.60;;;7.20;80.10;;;;;;5070450;28;20119;-82
2022/02/15 01:46:52;;;;;;;9.27;3.60;;;7.20;80.20;;;;;;5070224;28;20120;-82
2022/02/15 01:49:17;;;;;;;7.63;3.70;;;7.10;80.20;;;;;;5069620;28;20547;-82
2022/02/15 01:51:43;;;;;;;6.28;3.60;;;7.10;80.30;;;;;;5069412;28;20130;-82
2022/02/15 01:54:08;;;;;;;9.48;3.72;;;7.10;80.50;;;;;;5068950;28;20385;-82
2022/02/15 01:56:34;;;;;;;8.50;3.85;;;7.10;80.60;;;;;;5071114;28;20103;-83
2022/02/15 01:58:59;;;;;;;9.18;4.57;;;7.20;80.20;;;;;;5070227;28;20482;-82
2022/02/15 02:01:25;;;;;;;7.43;3.63;;;7.10;80.50;;;;;;5070050;28;20040;-83
2022/02/15 02:03:51;;;;;;;13.10;4.22;;;7.10;80.50;;;;;;5071137;28;20074;-83
2022/02/15 02:06:16;;;;;;;7.68;3.95;;;7.10;80.80;;;;;;5076828;28;20025;-83
2022/02/15 02:08:42;;;;;;;8.95;4.32;;;7.00;81.00;;;;;;5063241;28;20111;-82
2022/02/15 02:11:08;;;;;;;12.40;4.45;;;7.10;80.80;;;;;;5070720;28;20098;-82
2022/02/15 02:13:33;;;;;;;9.82;4.32;;;7.10;81.10;;;;;;5069991;28;20174;-83
2022/02/15 02:15:59;;;;;;;6.57;4.05;;;7.00;81.30;;;;;;5071318;28;20024;-83
2022/02/15 02:18:24;;;;;;;7.03;3.63;;;7.10;81.10;;;;;;5068353;28;20054;-82
2022/02/15 02:20:50;;;;;;;7.05;3.88;;;7.10;80.80;;;;;;5069911;28;20364;-82
2022/02/15 02:23:19;;;;;;;7.03;4.30;;;7.10;80.50;;;;;;5067977;28;20048;-82
2022/02/15 02:25:45;;;;;;;10.48;4.13;;;7.10;80.80;;;;;;5068721;28;20056;-82
2022/02/15 02:28:11;;;;;;;8.65;4.85;;;7.10;80.60;;;;;;5056146;28;20498;-82
2022/02/15 02:30:37;;;;;;;8.45;4.20;;;7.10;80.40;;;;;;5071294;28;20021;-82
2022/02/15 02:33:04;;;;;;;8.70;4.35;;;7.10;80.70;;;;;;5061501;28;20067;-82
2022/02/15 02:35:30;;;;;;;7.30;4.50;;;7.00;80.90;;;;;;5067726;28;20020;-82
2022/02/15 02:37:55;;;;;;;10.80;4.72;;;7.00;81.00;;;;;;5069778;28;20507;-82
2022/02/15 02:40:21;;;;;;;9.20;4.47;;;7.10;80.80;;;;;;5066013;28;20036;-82
2022/02/15 02:42:47;;;;;;;8.05;4.43;;;7.10;80.80;;;;;;5069169;28;20046;-82
2022/02/15 02:45:20;;;;;;;7.38;4.03;;;7.00;81.00;;;;;;5067489;28;20080;-83
2022/02/15 02:47:47;;;;;;;8.02;4.90;;;7.00;80.90;;;;;;5069379;28;20044;-82
2022/02/15 02:50:14;;;;;;;8.27;4.72;;;7.00;80.70;;;;;;5060832;28;20029;-82
2022/02/15 02:52:41;;;;;;;11.80;4.80;;;7.00;81.10;;;;;;5067005;28;20075;-82
2022/02/15 02:55:07;;;;;;;8.95;4.82;;;7.00;81.30;;;;;;5062928;28;20034;-82
2022/02/15 02:57:35;;;;;;;6.95;4.32;;;7.00;81.60;;;;;;5069533;28;20486;-82
2022/02/15 03:00:03;;;;;;;6.97;4.57;;;6.90;82.50;;;;;;5069841;28;20513;-82
2022/02/15 03:02:28;;;;;;;9.85;4.13;;;6.80;83.10;;;;;;5069161;28;20298;-83
2022/02/15 03:04:56;;;;;;;7.82;4.55;;;6.70;84.60;;;;;;5069086;28;20114;-83
2022/02/15 03:07:21;;;;;;;6.85;4.03;;;6.50;85.90;;;;;;5053640;28;20032;-82
2022/02/15 03:09:47;;;;;;;6.88;4.40;;;6.40;86.60;;;;;;5069800;28;20021;-82
2022/02/15 03:12:15;;;;;;;9.25;4.93;;;6.30;87.10;;;;;;5071047;28;20024;-82
2022/02/15 03:14:41;;;;;;;7.95;4.95;;;6.30;87.30;;;;;;5068194;28;20537;-82
2022/02/15 03:17:07;;;;;;;11.15;5.20;;;6.30;87.50;;;;;;5067776;28;20020;-83
2022/02/15 03:19:34;;;;;;;8.80;4.90;;;6.20;87.60;;;;;;5062556;28;20469;-82
2022/02/15 03:22:00;;;;;;;11.27;5.43;;;6.30;87.50;;;;;;5049108;28;20031;-82
2022/02/15 03:24:26;;;;;;;8.90;5.60;;;6.30;87.60;;;;;;5061724;28;20496;-82
2022/02/15 03:26:52;;;;;;;11.10;5.75;;;6.20;87.60;;;;;;5069665;28;20039;-82
2022/02/15 03:29:18;;;;;;;10.82;5.22;;;6.20;87.60;;;;;;5073323;28;20016;-82
2022/02/15 03:31:45;;;;;;;10.48;6.18;;;6.20;87.60;;;;;;5068483;28;20017;-82
2022/02/15 03:34:10;;;;;;;8.82;6.07;;;6.20;87.80;;;;;;5068839;28;20040;-82
2022/02/15 03:36:39;;;;;;;8.60;5.53;;;6.10;88.00;;;;;;5068770;28;20020;-82
2022/02/15 03:39:08;;;;;;;9.02;6.25;;;6.10;88.10;;;;;;5065974;28;20548;-82
2022/02/15 03:44:18;;;;;;;11.23;5.63;;;6.10;88.40;;;;;;5056796;28;20036;-83
2022/02/15 03:46:43;;;;;;;9.93;5.55;;;6.10;88.50;;;;;;5071206;28;20020;-83
2022/02/15 03:49:11;;;;;;;10.90;5.78;;;6.00;88.80;;;;;;5063036;28;20060;-83
2022/02/15 03:51:39;;;;;;;8.55;5.20;;;6.00;89.00;;;;;;5060270;28;20024;-83
2022/02/15 03:54:06;;;;;;;8.40;5.68;;;6.00;89.20;;;;;;5068788;28;20029;-82
2022/02/15 03:56:32;;;;;;;9.50;6.35;;;5.90;89.20;;;;;;5068669;28;20035;-82
2022/02/15 03:58:57;;;;;;;8.98;5.45;;;5.90;89.40;;;;;;5065618;28;21708;-82
2022/02/15 04:01:23;;;;;;;10.35;6.18;;;5.90;89.50;;;;;;5059813;28;20036;-82
2022/02/15 04:03:48;;;;;;;12.50;6.95;;;5.80;89.70;;;;;;5067709;28;20108;-82
2022/02/15 04:06:14;;;;;;;12.00;6.18;;;5.80;89.80;;;;;;5054456;28;20029;-82
2022/02/15 04:08:39;;;;;;;10.75;6.18;;;5.80;89.90;;;;;;5066993;28;20021;-83
2022/02/15 04:11:05;;;;;;;9.57;6.70;;;5.80;89.90;;;;;;5068977;28;20033;-82
2022/02/15 04:13:31;;;;;;;11.52;6.68;;;5.80;90.00;;;;;;5068071;28;20064;-82
2022/02/15 04:15:59;;;;;;;10.23;6.95;;;5.80;90.00;;;;;;5069078;28;20131;-83
2022/02/15 04:18:26;;;;;;;10.00;5.97;;;5.80;90.00;;;;;;5068505;28;20392;-83
2022/02/15 04:20:52;;;;;;;13.40;6.13;;;5.90;89.90;;;;;;5065872;28;20017;-83
2022/02/15 04:23:18;;;;;;;10.82;6.35;;;5.80;89.90;;;;;;5061242;28;20601;-83
2022/02/15 04:25:48;;;;;;;11.68;6.18;;;5.80;89.80;;;;;;5064902;28;20413;-83
2022/02/15 04:28:13;;;;;;;10.35;6.28;;;5.80;89.80;;;;;;5061356;28;20106;-82
2022/02/15 04:30:39;;;;;;;10.25;6.13;;;5.90;89.80;;;;;;5070167;28;20052;-82
2022/02/15 04:33:06;;;;;;;11.00;5.70;;;5.80;89.90;;;;;;5069277;28;20527;-82
2022/02/15 04:35:34;;;;;;;9.10;5.72;;;5.80;89.90;;;;;;5073320;28;20029;-82
2022/02/15 04:38:00;;;;;;;8.75;5.38;;;5.80;90.00;;;;;;5067832;28;20037;-82
2022/02/15 04:40:32;;;;;;;13.32;6.30;;;5.80;90.10;;;;;;5055374;28;20036;-82
2022/02/15 04:42:58;;;;;;;10.52;5.93;;;5.80;90.10;;;;;;5069635;28;20109;-82
2022/02/15 04:45:23;;;;;;;8.90;6.10;;;5.80;90.30;;;;;;5082975;28;20051;-82
2022/02/15 04:47:49;;;;;;;10.55;6.20;;;5.80;90.40;;;;;;5063998;28;20081;-84
2022/02/15 04:50:14;;;;;;;11.10;6.40;;;5.80;90.70;;;;;;5069734;28;20180;-83
2022/02/15 04:52:40;;;;;;;11.63;6.45;;;5.70;91.20;;;;;;5070459;28;20055;-83
2022/02/15 04:55:08;;;;;;;10.32;6.30;;;5.70;91.50;;;;;;5065449;28;20028;-83
2022/02/15 04:57:34;;;;;;;12.35;6.70;;;5.60;91.80;;;;;;5072518;28;20027;-83
2022/02/15 05:00:00;;;;;;;9.15;6.03;;;5.60;91.90;;;;;;5073676;28;20391;-83
2022/02/15 05:02:25;;;;;;;10.15;6.45;;;5.60;91.90;;;;;;5073276;28;20031;-83
2022/02/15 05:04:51;;;;;;;10.98;6.35;;;5.60;91.90;;;;;;5071920;28;20048;-83
2022/02/15 05:07:17;;;;;;;16.75;6.63;;;5.60;92.10;;;;;;5070256;28;20496;-83
2022/02/15 05:09:43;;;;;;;16.15;6.45;;;5.60;92.30;;;;;;5059779;28;20056;-83
2022/02/15 05:12:09;;;;;;;10.07;6.13;;;5.60;92.40;;;;;;5072530;28;20063;-83
2022/02/15 05:14:35;;;;;;;10.30;6.07;;;5.60;92.50;;;;;;5068399;28;20111;-84
2022/02/15 05:17:03;;;;;;;12.77;6.95;;;5.60;92.50;;;;;;5069355;28;20111;-82
2022/02/15 05:19:29;;;;;;;13.73;6.43;;;5.50;92.60;;;;;;5071526;28;20067;-81
2022/02/15 05:21:54;;;;;;;11.55;5.78;;;5.50;92.60;;;;;;5070430;28;20489;-81
2022/02/15 05:24:20;;;;;;;9.32;6.05;;;5.60;92.50;;;;;;5068139;28;20782;-81
2022/02/15 05:26:45;;;;;;;14.55;6.05;;;5.60;92.50;;;;;;5069205;28;20116;-81
2022/02/15 05:29:11;;;;;;;9.30;5.70;;;5.60;92.50;;;;;;5070892;28;20047;-81
2022/02/15 05:31:37;;;;;;;16.13;6.45;;;5.60;92.50;;;;;;5061184;28;20021;-81
2022/02/15 05:34:02;;;;;;;12.63;7.05;;;5.50;92.50;;;;;;5069705;28;20683;-81
2022/02/15 05:36:28;;;;;;;10.57;6.22;;;5.50;92.60;;;;;;5069449;28;20415;-81
2022/02/15 05:38:53;;;;;;;12.63;6.07;;;5.50;92.80;;;;;;5069354;28;20392;-82
2022/02/15 05:41:19;;;;;;;11.13;6.03;;;5.50;92.90;;;;;;5064740;28;20029;-81
2022/02/15 05:43:44;;;;;;;11.68;5.88;;;5.50;92.90;;;;;;5070437;28;20108;-81
2022/02/15 05:46:13;;;;;;;10.35;6.20;;;5.50;92.70;;;;;;5071489;28;20071;-81
2022/02/15 05:48:38;;;;;;;12.27;5.68;;;5.50;92.70;;;;;;5059441;28;20028;-82
2022/02/15 05:51:04;;;;;;;11.30;6.65;;;5.50;92.70;;;;;;5071606;28;20031;-81
2022/02/15 05:53:30;;;;;;;11.40;6.18;;;5.50;92.70;;;;;;5067236;28;20024;-81
2022/02/15 05:55:59;;;;;;;11.65;6.25;;;5.40;92.90;;;;;;5067826;28;20369;-82
2022/02/15 05:58:29;;;;;;;14.05;6.88;;;5.40;93.00;;;;;;5071598;28;20027;-81
2022/02/15 06:00:59;;;;;;;9.38;5.85;;;5.50;93.00;;;;;;5066927;28;20173;-81
2022/02/15 06:06:08;;;;;;;11.75;7.00;;;5.40;93.00;;;;;;5070634;28;20118;-81
2022/02/15 06:08:34;;;;;;;10.73;6.63;;;5.40;93.00;;;;;;5070428;28;20025;-80
2022/02/15 06:11:00;;;;;;;10.32;6.43;;;5.50;92.90;;;;;;5063599;28;20029;-81
2022/02/15 06:13:26;;;;;;;10.50;5.90;;;5.50;92.70;;;;;;5070961;28;20055;-81
2022/02/15 06:15:52;;;;;;;11.82;7.07;;;5.50;92.50;;;;;;5070776;28;20028;-81
2022/02/15 06:18:17;;;;;;;12.23;6.82;;;5.50;92.40;;;;;;5066606;28;20465;-81
2022/02/15 06:20:43;;;;;;;13.95;6.90;;;5.50;92.40;;;;;;5069882;28;20094;-81
2022/02/15 06:23:09;;;;;;;15.00;6.15;;;5.50;92.60;;;;;;5068569;28;20581;-81
2022/02/15 06:25:34;;;;;;;13.43;6.85;;;5.50;92.70;;;;;;5060626;28;20031;-81
2022/02/15 06:28:01;;;;;;;12.45;6.47;;;5.40;92.70;;;;;;5065249;28;20052;-81
2022/02/15 06:30:26;;;;;;;11.50;6.25;;;5.40;92.80;;;;;;5058326;28;20059;-81
2022/02/15 06:32:52;;;;;;;13.68;6.65;;;5.40;92.90;;;;;;5053905;28;20434;-81
2022/02/15 06:35:18;;;;;;;10.45;6.43;;;5.40;93.00;;;;;;5060225;28;20489;-81
2022/02/15 06:37:44;;;;;;;13.63;6.32;;;5.40;93.10;;;;;;5063471;28;20392;-81
2022/02/15 06:40:12;;;;;;;15.73;7.15;;;5.30;93.20;;;;;;5064516;28;20430;-81
2022/02/15 06:42:38;;;;;;;10.10;6.07;;;5.30;93.30;;;;;;5066878;28;20036;-81
2022/02/15 06:45:04;;;;;;;13.85;7.75;;;5.30;93.40;;;;;;5063464;28;20385;-81
2022/02/15 06:47:30;;;;;;;12.98;7.35;;;5.30;93.40;;;;;;5065623;28;20554;-81
2022/02/15 06:49:56;;;;;;;13.73;7.18;;;5.30;93.40;;;;;;5070270;28;20024;-81
2022/02/15 06:52:21;;;;;;;13.20;7.78;;;5.40;93.40;;;;;;5067638;28;20024;-81
2022/02/15 06:54:47;;;;;;;11.70;6.53;;;5.30;93.30;;;;;;5061420;28;20028;-80
2022/02/15 06:57:12;;;;;;;13.80;7.25;;;5.30;93.20;;;;;;5054978;28;20021;-82
2022/02/15 06:59:38;;;;;;;15.10;7.35;;;5.30;93.20;;;;;;5070477;28;20481;-81
2022/02/15 07:02:03;;;;;;;12.18;7.40;;;5.30;93.20;;;;;;5067615;28;20043;-81
2022/02/15 07:04:30;;;;;;;12.68;7.30;;;5.30;93.20;;;;;;5068118;28;20040;-81
2022/02/15 07:06:56;;;;;;;13.90;7.57;;;5.30;93.30;;;;;;5067489;28;20032;-81
2022/02/15 07:09:22;;;;;;;13.38;7.30;;;5.30;93.30;;;;;;5065321;28;20025;-81
2022/02/15 07:11:48;;;;;;;17.08;8.35;;;5.30;93.30;;;;;;5072627;28;20027;-81
2022/02/15 07:14:14;;;;;;;17.60;8.32;;;5.20;93.30;;;;;;5065064;28;20028;-81
2022/02/15 07:16:43;;;;;;;16.80;8.18;;;5.30;93.40;;;;;;5075509;28;20031;-81
2022/02/15 07:19:09;;;;;;;18.88;8.50;;;5.20;93.40;;;;;;5060652;28;20040;-81
2022/02/15 07:21:34;;;;;;;14.68;8.00;;;5.30;93.30;;;;;;5066779;28;20032;-81
2022/02/15 07:24:00;;;;;;;15.55;8.23;;;5.30;93.20;;;;;;5064367;28;20108;-81
2022/02/15 07:26:25;;;;;;;13.52;7.65;;;5.30;93.00;;;;;;5068240;28;20039;-81
2022/02/15 07:28:52;;;;;;;15.30;8.27;;;5.30;92.70;;;;;;5069644;28;20399;-81
2022/02/15 07:31:18;;;;;;;13.05;8.05;;;5.30;92.50;;;;;;5066613;28;20480;-82
2022/02/15 07:33:43;;;;;;;16.77;8.45;;;5.30;92.40;;;;;;5080082;28;20060;-81
2022/02/15 07:36:09;;;;;;;13.63;7.35;;;5.30;92.20;;;;;;5067221;28;20110;-80
2022/02/15 07:38:34;;;;;;;11.73;7.70;;;5.40;91.90;;;;;;5065954;28;20017;-80
2022/02/15 07:41:00;;;;;;;13.40;7.45;;;5.40;91.80;;;;;;5064971;28;20745;-80
2022/02/15 07:43:25;;;;;;;14.38;7.05;;;5.50;91.80;;;;;;5058656;28;20024;-80
2022/02/15 07:45:52;;;;;;;16.35;8.02;;;5.60;91.60;;;;;;5069562;28;20024;-80
2022/02/15 07:48:17;;;;;;;11.98;6.93;;;5.60;91.30;;;;;;5064142;28;20556;-80
2022/02/15 07:50:43;;;;;;;12.65;7.55;;;5.70;91.00;;;;;;5068898;28;20099;-80
2022/02/15 07:53:09;;;;;;;13.63;6.45;;;5.70;90.90;;;;;;5063055;28;20397;-80
2022/02/15 07:55:34;;;;;;;12.82;7.25;;;5.80;90.90;;;;;;5069392;28;20036;-80
2022/02/15 07:58:00;;;;;;;13.48;7.65;;;5.80;90.80;;;;;;5067282;28;20038;-80
2022/02/15 08:00:26;;;;;;;12.90;7.15;;;5.80;90.80;;;;;;5077403;28;20029;-80
2022/02/15 08:02:52;;;;;;;11.50;7.15;;;5.90;90.90;;;;;;5066853;28;20025;-80
2022/02/15 08:05:19;;;;;;;13.45;7.47;;;6.00;90.90;;;;;;5068619;28;20090;-80
2022/02/15 08:07:50;;;;;;;15.07;7.65;;;5.90;90.80;;;;;;5066863;28;20021;-80
2022/02/15 08:10:19;;;;;;;12.70;7.32;;;6.00;90.80;;;;;;5065626;28;20025;-80
2022/02/15 08:12:55;;;;;;;12.85;7.25;;;6.00;90.90;;;;;;5068336;28;20086;-80
2022/02/15 08:15:28;;;;;;;13.45;7.25;;;5.90;91.00;;;;;;5068912;28;20064;-80
2022/02/15 08:17:53;;;;;;;11.13;7.70;;;5.90;91.00;;;;;;5068552;28;20488;-80
2022/02/15 08:20:19;;;;;;;16.15;8.13;;;6.00;91.00;;;;;;5065722;28;20036;-81
2022/02/15 08:22:44;;;;;;;13.48;7.75;;;6.00;91.00;;;;;;5074294;28;20745;-81
2022/02/15 08:25:10;;;;;;;14.30;7.57;;;6.00;90.90;;;;;;5073161;28;20559;-81
2022/02/15 08:27:36;;;;;;;15.15;8.40;;;6.00;91.10;;;;;;5073330;28;20091;-80
2022/02/15 08:30:01;;;;;;;11.55;8.18;;;6.10;91.00;;;;;;5058752;28;20028;-80
2022/02/15 08:32:27;;;;;;;16.73;8.45;;;6.10;90.80;;;;;;5081186;28;20074;-80
2022/02/15 08:34:52;;;;;;;11.73;7.63;;;6.10;90.80;;;;;;5079793;28;20016;-80
2022/02/15 08:37:18;;;;;;;10.93;6.75;;;6.10;90.60;;;;;;5064203;28;20059;-80
2022/02/15 08:39:44;;;;;;;12.35;7.28;;;6.10;90.50;;;;;;5064995;28;20021;-80
2022/02/15 08:42:10;;;;;;;16.58;7.60;;;6.10;90.30;;;;;;5069541;28;20130;-80
2022/02/15 08:44:36;;;;;;;13.63;7.53;;;6.20;90.20;;;;;;5061787;28;20123;-81
2022/02/15 08:47:06;;;;;;;16.15;8.55;;;6.20;90.20;;;;;;5067139;28;20025;-80
2022/02/15 08:49:32;;;;;;;10.63;7.45;;;6.20;90.00;;;;;;5072780;28;20017;-80
2022/02/15 08:51:58;;;;;;;13.45;7.78;;;6.20;89.80;;;;;;5066291;28;20119;-80
2022/02/15 08:54:24;;;;;;;12.32;7.43;;;6.20;89.60;;;;;;5070676;28;20112;-79
2022/02/15 08:56:50;;;;;;;13.90;7.53;;;6.30;89.60;;;;;;5065200;28;20021;-79
2022/02/15 08:59:15;;;;;;;18.05;8.18;;;6.30;89.40;;;;;;5060226;28;20036;-80
2022/02/15 09:01:41;;;;;;;14.43;7.97;;;6.20;88.90;;;;;;5070509;28;20610;-80
2022/02/15 09:04:07;;;;;;;13.30;7.88;;;6.30;88.70;;;;;;5069296;28;20366;-80
2022/02/15 09:06:34;;;;;;;12.30;7.50;;;6.30;88.70;;;;;;5060118;28;20032;-80
2022/02/15 09:09:00;;;;;;;12.75;7.57;;;6.30;88.60;;;;;;5086216;28;20035;-80
2022/02/15 09:11:25;;;;;;;12.85;7.88;;;6.30;88.60;;;;;;5074812;28;20033;-80
2022/02/15 09:13:51;;;;;;;11.80;6.70;;;6.30;88.60;;;;;;5073188;28;20074;-80
2022/02/15 09:16:16;;;;;;;9.80;6.65;;;6.40;88.20;;;;;;5066600;28;20033;-80
2022/02/15 09:18:42;;;;;;;10.45;6.18;;;6.50;88.10;;;;;;5066989;28;20118;-79
2022/02/15 09:21:07;;;;;;;10.68;6.63;;;6.50;88.10;;;;;;5076738;28;20507;-80
2022/02/15 09:23:33;;;;;;;10.82;6.10;;;6.50;87.80;;;;;;5070270;28;20106;-80
2022/02/15 09:25:59;;;;;;;11.98;6.43;;;6.50;87.70;;;;;;5064743;28;20023;-80
2022/02/15 09:28:25;;;;;;;11.75;6.18;;;6.50;87.60;;;;;;5070518;28;20017;-80
2022/02/15 09:30:54;;;;;;;8.57;5.50;;;6.50;86.90;;;;;;5072020;28;20388;-80
2022/02/15 09:33:21;;;;;;;11.07;5.93;;;6.50;86.70;;;;;;5070047;28;20028;-80
2022/02/15 09:35:47;;;;;;;10.43;5.72;;;6.60;87.00;;;;;;5067359;28;20095;-80
2022/02/15 09:38:12;;;;;;;10.98;6.18;;;6.70;86.80;;;;;;5069512;28;20044;-80
2022/02/15 09:40:38;;;;;;;10.55;6.10;;;6.70;86.60;;;;;;5071734;28;20037;-80
2022/02/15 09:43:05;;;;;;;9.23;5.95;;;7.10;86.30;;;;;;5072326;28;20115;-80
2022/02/15 09:45:32;;;;;;;9.85;5.75;;;7.00;85.50;;;;;;5071321;28;20024;-80
2022/02/15 09:48:01;;;;;;;10.20;5.82;;;7.00;85.80;;;;;;5060394;28;20366;-80
2022/02/15 09:50:29;;;;;;;9.95;6.18;;;6.90;85.60;;;;;;5068259;28;20107;-81
2022/02/15 09:52:56;;;;;;;10.18;6.05;;;6.80;85.90;;;;;;5063284;28;20459;-81
2022/02/15 09:55:21;;;;;;;11.10;6.43;;;6.70;85.60;;;;;;5067080;28;20032;-81
2022/02/15 09:57:47;;;;;;;9.95;6.22;;;6.70;86.20;;;;;;5073550;28;20029;-81
2022/02/15 10:00:14;;;;;;;9.95;6.70;;;6.70;86.40;;;;;;5066787;28;20064;-81
2022/02/15 10:02:41;;;;;;;10.30;6.05;;;6.70;86.50;;;;;;5069727;28;20044;-81
2022/02/15 10:05:10;;;;;;;10.38;7.15;;;6.80;86.70;;;;;;5072068;28;20475;-81
2022/02/15 10:07:47;;;;;;;16.70;7.35;;;7.10;86.40;;;;;;5058337;28;22441;-81
2022/02/15 10:10:13;;;;;;;10.38;7.03;;;7.20;85.40;;;;;;5068890;28;20036;-81
2022/02/15 10:12:39;;;;;;;12.15;6.88;;;7.30;84.40;;;;;;5067898;28;20047;-81
2022/02/15 10:15:09;;;;;;;12.02;6.30;;;7.50;84.60;;;;;;5070102;28;20531;-81
2022/02/15 10:17:37;;;;;;;10.20;6.45;;;7.60;83.70;;;;;;5064083;28;20029;-81
2022/02/15 10:20:03;;;;;;;10.73;7.07;;;7.60;83.40;;;;;;5069857;28;20559;-81
2022/02/15 10:22:29;;;;;;;11.52;6.35;;;8.00;83.90;;;;;;5065042;28;20488;-81
2022/02/15 10:24:58;;;;;;;11.48;7.18;;;8.10;83.50;;;;;;5070459;28;20032;-81
2022/02/15 10:27:30;;;;;;;13.35;6.90;;;8.10;82.70;;;;;;5059847;28;20024;-81
2022/02/15 10:29:56;;;;;;;13.38;6.53;;;7.80;83.20;;;;;;5070105;28;20028;-81
2022/02/15 10:32:22;;;;;;;11.52;6.90;;;7.50;83.60;;;;;;5069665;28;20029;-82
2022/02/15 10:34:56;;;;;;;11.30;7.28;;;7.30;83.70;;;;;;5085273;28;20059;-81
2022/02/15 10:37:26;;;;;;;13.48;6.88;;;7.40;84.50;;;;;;5066414;28;20068;-81
2022/02/15 10:40:01;;;;;;;10.90;6.30;;;7.30;84.20;;;;;;5050889;28;20484;-81
2022/02/15 10:42:30;;;;;;;10.38;6.63;;;7.30;84.10;;;;;;5069246;28;20024;-81
2022/02/15 10:45:05;;;;;;;12.32;7.25;;;7.30;84.50;;;;;;5070883;28;20081;-81
2022/02/15 10:47:36;;;;;;;12.15;7.55;;;7.20;84.70;;;;;;5071115;28;20055;-81
2022/02/15 10:50:05;;;;;;;15.05;7.57;;;7.20;85.20;;;;;;5070212;28;20035;-81
2022/02/15 10:52:31;;;;;;;14.10;7.03;;;7.10;84.90;;;;;;5071495;28;20028;-81
2022/02/15 10:54:57;;;;;;;14.60;8.43;;;7.10;85.10;;;;;;5072117;28;20028;-81
2022/02/15 10:57:24;;;;;;;13.13;7.80;;;7.10;85.20;;;;;;5070991;28;20469;-81
2022/02/15 10:59:54;;;;;;;12.32;7.63;;;7.10;85.30;;;;;;5069697;28;20016;-81
2022/02/15 11:02:23;;;;;;;12.98;7.35;;;7.20;85.20;;;;;;5056256;28;20029;-81
2022/02/15 11:04:50;;;;;;;12.05;7.85;;;7.40;84.80;;;;;;5077086;28;20075;-81
2022/02/15 11:07:18;;;;;;;10.45;7.45;;;7.50;84.40;;;;;;5067320;28;20029;-81
2022/02/15 11:10:01;;;;;;;12.52;8.70;;;7.50;83.40;;;;;;5070877;28;20028;-81
2022/02/15 11:12:47;;;;;;;11.68;7.72;;;7.50;83.50;;;;;;5071000;28;20055;-81
2022/02/15 11:15:20;;;;;;;12.77;7.10;;;7.60;83.30;;;;;;5066226;28;20052;-81
2022/02/15 11:17:51;;;;;;;12.90;7.80;;;7.70;83.00;;;;;;5070176;28;20562;-81
2022/02/15 11:20:17;;;;;;;;;;;7.60;83.00;;;;;;5070033;28;20051;-81
2022/02/15 11:22:51;;;;;;;10.50;7.00;;;7.60;83.20;;;;;;5061037;28;19923;-81
2022/02/15 11:25:28;;;;;;;11.48;8.30;;;7.50;82.50;;;;;;5067685;28;20119;-81
2022/02/15 11:27:54;;;;;;;10.02;6.15;;;7.60;82.80;;;;;;5063284;28;20087;-81
2022/02/15 11:30:20;;;;;;;12.00;8.32;;;7.70;82.90;;;;;;5070031;28;20024;-81
2022/02/15 11:32:47;;;;;;;11.55;8.48;;;7.80;82.80;;;;;;5070373;28;20021;-81
2022/02/15 11:35:16;;;;;;;15.70;9.00;;;7.90;82.30;;;;;;5070452;28;20059;-81
2022/02/15 11:37:42;;;;;;;12.27;8.48;;;8.10;82.00;;;;;;5069562;28;20432;-81
2022/02/15 11:40:11;;;;;;;14.23;8.55;;;8.30;80.90;;;;;;5051816;28;20078;-82
2022/02/15 11:42:50;;;;;;;14.68;8.90;;;8.80;80.30;;;;;;5084482;28;20399;-82
2022/02/15 11:45:24;;;;;;;10.88;7.65;;;8.40;80.20;;;;;;5066934;28;20451;-81
2022/02/15 11:47:50;;;;;;;14.80;9.07;;;8.20;80.10;;;;;;5071665;28;20016;-81
2022/02/15 11:50:16;;;;;;;17.20;9.75;;;8.00;81.00;;;;;;5070589;28;20143;-81
2022/02/15 11:52:43;;;;;;;13.38;9.32;;;8.00;81.20;;;;;;5068975;28;20052;-81
2022/02/15 11:55:16;;;;;;;13.02;9.35;;;8.10;81.60;;;;;;5071226;28;20082;-81
2022/02/15 11:57:43;;;;;;;14.07;8.68;;;8.10;81.60;;;;;;5069939;28;20116;-81
2022/02/15 12:00:10;;;;;;;17.42;9.98;;;8.00;81.10;;;;;;5062337;28;20025;-81
2022/02/15 12:02:37;;;;;;;13.23;9.52;;;8.10;81.40;;;;;;5062657;28;20021;-81
2022/02/15 12:05:04;;;;;;;13.63;9.18;;;8.20;81.80;;;;;;5061659;28;20050;-81
2022/02/15 12:07:30;;;;;;;13.75;8.90;;;8.10;79.90;;;;;;5068438;28;20017;-81
2022/02/15 12:09:58;;;;;;;16.33;9.10;;;8.10;79.50;;;;;;5070128;28;20395;-81
2022/02/15 12:12:42;;;;;;;13.20;8.73;;;8.00;79.20;;;;;;5069953;28;20032;-81
2022/02/15 12:15:09;;;;;;;14.73;9.32;;;8.10;79.20;;;;;;5070873;28;20408;-81
2022/02/15 12:17:42;;;;;;;13.40;8.60;;;8.10;79.20;;;;;;5079642;28;20024;-81
2022/02/15 12:20:12;;;;;;;13.50;9.07;;;8.10;79.90;;;;;;5066979;28;20383;-81
2022/02/15 12:22:42;;;;;;;14.43;9.88;;;8.20;80.20;;;;;;5061527;28;20655;-81
2022/02/15 12:25:09;;;;;;;15.18;9.80;;;8.30;80.10;;;;;;5056273;28;20029;-81
2022/02/15 12:27:39;;;;;;;17.38;9.75;;;8.20;79.80;;;;;;5050854;28;20029;-81
2022/02/15 12:30:06;;;;;;;12.75;8.30;;;8.30;80.30;;;;;;5053060;28;20373;-81
2022/02/15 12:32:32;;;;;;;17.45;9.90;;;8.10;80.00;;;;;;5065120;28;20433;-81
2022/02/15 12:34:58;;;;;;;13.30;8.85;;;8.00;80.30;;;;;;5069722;28;20516;-81
2022/02/15 12:37:26;;;;;;;15.90;9.80;;;8.00;80.50;;;;;;5067413;28;20020;-81
2022/02/15 12:39:54;;;;;;;16.27;9.63;;;7.80;80.90;;;;;;5070324;28;20032;-81
2022/02/15 12:42:20;;;;;;;14.57;9.77;;;7.80;81.00;;;;;;5068199;28;20028;-80
2022/02/15 12:44:58;;;;;;;15.63;9.73;;;7.90;80.80;;;;;;5065952;28;20100;-81
2022/02/15 12:47:28;;;;;;;16.00;10.63;;;8.10;80.80;;;;;;5065781;28;20056;-80
2022/02/15 12:49:55;;;;;;;14.13;9.48;;;8.10;81.20;;;;;;5078855;28;20061;-80
2022/02/15 12:52:26;;;;;;;14.63;9.25;;;8.20;80.40;;;;;;5070699;28;20032;-80
2022/02/15 12:54:54;;;;;;;14.52;10.25;;;8.30;80.00;;;;;;5070254;28;20433;-80